メインページ
METAR-TAF:

METAR-TAF

空港 :

バーレーン国際空港

バーレーン, バーレーン

緯度: 26-16N, 経度: 050-39E, 海抜: 2m

現時点の気象観測

当レポートは33分前の18:00(UTC)に作成
北/北西の風 6kt
気温 34°C
湿度 56%
気圧 999 hPa
視程10km以上
1,500メートル以下は雲なし、積乱雲なし

METAR: OBBI 151800Z 33006KT CAVOK 34/24 Q0999 NOSIG

時間: 21:33 (18:33 UTC)

予報

当レポートは1時間33分前の17:00(UTC)に作成
予報は15日の 18時(UTC)から 17日の 00時(UTC)まで有効
北/北西の風 10kt
視程10km以上
1,500メートル以下は雲なし、積乱雲なし

TAF: OBBI 151700Z 1518/1700 33010KT CAVOK

4,000以上の空港の気象観測と天気予報(METAR報とTAF報)

利用可能な観測所は地図上に黄色い丸と赤い丸で示す。

丸の上にカーソルを重ねると観測所名を参照できる。

次にクリックすると気象観測と天気予報を参照できる。

マップの切り替え:黒色「×」印の緑ボタンをクリックして拡大、「-」印の緑ボタンをクリックして縮小、緑色の三角印をクリックして隣りの地図に切り替え


METAR-TAF: